sensor_id;sensor_type;location;lat;lon;timestamp;P1;durP1;ratioP1;P2;durP2;ratioP2
44189;SDS011;29856;52.144;5.430;2022-12-20T00:01:41;5.75;;;2.97;;
44189;SDS011;29856;52.144;5.430;2022-12-20T00:04:06;4.97;;;3.10;;
44189;SDS011;29856;52.144;5.430;2022-12-20T00:06:34;3.97;;;2.55;;
44189;SDS011;29856;52.144;5.430;2022-12-20T00:09:01;7.00;;;2.92;;
44189;SDS011;29856;52.144;5.430;2022-12-20T00:11:28;4.82;;;2.67;;
44189;SDS011;29856;52.144;5.430;2022-12-20T00:13:54;3.72;;;3.00;;
44189;SDS011;29856;52.144;5.430;2022-12-20T00:16:20;2.85;;;2.50;;
44189;SDS011;29856;52.144;5.430;2022-12-20T00:18:50;5.68;;;2.50;;
44189;SDS011;29856;52.144;5.430;2022-12-20T00:21:16;3.47;;;2.50;;
44189;SDS011;29856;52.144;5.430;2022-12-20T00:23:42;4.70;;;3.10;;
44189;SDS011;29856;52.144;5.430;2022-12-20T00:26:08;4.57;;;2.63;;
44189;SDS011;29856;52.144;5.430;2022-12-20T00:28:36;3.97;;;2.72;;
44189;SDS011;29856;52.144;5.430;2022-12-20T00:31:03;6.28;;;2.88;;
44189;SDS011;29856;52.144;5.430;2022-12-20T00:33:29;5.03;;;2.83;;
44189;SDS011;29856;52.144;5.430;2022-12-20T00:35:55;3.95;;;2.35;;
44189;SDS011;29856;52.144;5.430;2022-12-20T00:38:21;5.28;;;2.63;;
44189;SDS011;29856;52.144;5.430;2022-12-20T00:40:57;7.32;;;2.60;;
44189;SDS011;29856;52.144;5.430;2022-12-20T00:43:24;5.95;;;2.83;;
44189;SDS011;29856;52.144;5.430;2022-12-20T00:45:49;5.72;;;2.55;;
44189;SDS011;29856;52.144;5.430;2022-12-20T00:48:15;6.50;;;2.80;;
44189;SDS011;29856;52.144;5.430;2022-12-20T00:50:40;2.55;;;2.28;;
44189;SDS011;29856;52.144;5.430;2022-12-20T00:53:06;3.63;;;2.40;;
44189;SDS011;29856;52.144;5.430;2022-12-20T00:55:31;3.95;;;2.67;;
44189;SDS011;29856;52.144;5.430;2022-12-20T00:57:56;3.83;;;2.42;;
44189;SDS011;29856;52.144;5.430;2022-12-20T01:00:22;3.63;;;2.53;;
44189;SDS011;29856;52.144;5.430;2022-12-20T01:02:47;6.13;;;2.33;;
44189;SDS011;29856;52.144;5.430;2022-12-20T01:05:13;8.43;;;2.72;;
44189;SDS011;29856;52.144;5.430;2022-12-20T01:07:38;3.75;;;2.47;;
44189;SDS011;29856;52.144;5.430;2022-12-20T01:10:04;3.83;;;2.75;;
44189;SDS011;29856;52.144;5.430;2022-12-20T01:12:30;3.85;;;2.42;;
44189;SDS011;29856;52.144;5.430;2022-12-20T01:14:55;4.63;;;2.90;;
44189;SDS011;29856;52.144;5.430;2022-12-20T01:17:21;5.85;;;2.92;;
44189;SDS011;29856;52.144;5.430;2022-12-20T01:19:46;4.88;;;2.55;;
44189;SDS011;29856;52.144;5.430;2022-12-20T01:22:11;3.78;;;2.42;;
44189;SDS011;29856;52.144;5.430;2022-12-20T01:24:37;6.45;;;2.95;;
44189;SDS011;29856;52.144;5.430;2022-12-20T01:27:02;4.30;;;2.60;;
44189;SDS011;29856;52.144;5.430;2022-12-20T01:29:28;4.30;;;2.40;;
44189;SDS011;29856;52.144;5.430;2022-12-20T01:31:53;4.75;;;2.67;;
44189;SDS011;29856;52.144;5.430;2022-12-20T01:34:19;6.03;;;2.65;;
44189;SDS011;29856;52.144;5.430;2022-12-20T01:36:44;6.88;;;2.95;;
44189;SDS011;29856;52.144;5.430;2022-12-20T01:39:11;9.30;;;2.75;;
44189;SDS011;29856;52.144;5.430;2022-12-20T01:41:38;5.13;;;2.95;;
44189;SDS011;29856;52.144;5.430;2022-12-20T01:44:06;5.70;;;3.05;;
44189;SDS011;29856;52.144;5.430;2022-12-20T01:46:50;5.28;;;2.95;;
44189;SDS011;29856;52.144;5.430;2022-12-20T01:51:59;6.80;;;3.10;;
44189;SDS011;29856;52.144;5.430;2022-12-20T01:54:30;3.33;;;2.78;;
44189;SDS011;29856;52.144;5.430;2022-12-20T01:57:01;5.35;;;3.22;;
44189;SDS011;29856;52.144;5.430;2022-12-20T01:59:29;4.05;;;2.80;;
44189;SDS011;29856;52.144;5.430;2022-12-20T02:01:58;4.93;;;3.20;;
44189;SDS011;29856;52.144;5.430;2022-12-20T02:04:26;6.15;;;3.30;;
44189;SDS011;29856;52.144;5.430;2022-12-20T02:06:51;6.90;;;3.38;;
44189;SDS011;29856;52.144;5.430;2022-12-20T02:09:17;7.50;;;3.70;;
44189;SDS011;29856;52.144;5.430;2022-12-20T02:17:16;4.10;;;3.17;;
44189;SDS011;29856;52.144;5.430;2022-12-20T02:20:07;6.20;;;3.20;;
44189;SDS011;29856;52.144;5.430;2022-12-20T02:31:53;5.85;;;3.10;;
44189;SDS011;29856;52.144;5.430;2022-12-20T02:34:26;5.60;;;3.38;;
44189;SDS011;29856;52.144;5.430;2022-12-20T02:36:54;5.85;;;3.20;;
44189;SDS011;29856;52.144;5.430;2022-12-20T02:39:19;3.95;;;2.97;;
44189;SDS011;29856;52.144;5.430;2022-12-20T02:41:50;6.07;;;3.40;;
44189;SDS011;29856;52.144;5.430;2022-12-20T02:44:20;8.15;;;3.97;;
44189;SDS011;29856;52.144;5.430;2022-12-20T02:46:50;5.55;;;4.05;;
44189;SDS011;29856;52.144;5.430;2022-12-20T02:49:18;5.97;;;3.80;;
44189;SDS011;29856;52.144;5.430;2022-12-20T02:51:47;6.32;;;3.35;;
44189;SDS011;29856;52.144;5.430;2022-12-20T02:54:14;6.05;;;3.28;;
44189;SDS011;29856;52.144;5.430;2022-12-20T02:56:42;4.60;;;3.22;;
44189;SDS011;29856;52.144;5.430;2022-12-20T02:59:14;7.45;;;3.88;;
44189;SDS011;29856;52.144;5.430;2022-12-20T03:01:46;4.50;;;3.17;;
44189;SDS011;29856;52.144;5.430;2022-12-20T03:04:15;6.10;;;3.38;;
44189;SDS011;29856;52.144;5.430;2022-12-20T03:07:02;4.72;;;3.53;;
44189;SDS011;29856;52.144;5.430;2022-12-20T03:09:30;5.53;;;3.60;;
44189;SDS011;29856;52.144;5.430;2022-12-20T03:11:56;7.25;;;3.78;;
44189;SDS011;29856;52.144;5.430;2022-12-20T03:14:22;5.75;;;3.30;;
44189;SDS011;29856;52.144;5.430;2022-12-20T03:16:47;8.30;;;3.58;;
44189;SDS011;29856;52.144;5.430;2022-12-20T03:19:13;4.22;;;3.20;;
44189;SDS011;29856;52.144;5.430;2022-12-20T03:21:38;4.68;;;3.15;;
44189;SDS011;29856;52.144;5.430;2022-12-20T03:24:04;7.28;;;3.38;;
44189;SDS011;29856;52.144;5.430;2022-12-20T03:26:30;5.93;;;3.30;;
44189;SDS011;29856;52.144;5.430;2022-12-20T03:28:55;4.05;;;3.22;;
44189;SDS011;29856;52.144;5.430;2022-12-20T03:31:21;4.65;;;3.28;;
44189;SDS011;29856;52.144;5.430;2022-12-20T03:33:46;5.50;;;3.00;;
44189;SDS011;29856;52.144;5.430;2022-12-20T03:36:12;7.93;;;3.92;;
44189;SDS011;29856;52.144;5.430;2022-12-20T03:38:37;6.95;;;3.80;;
44189;SDS011;29856;52.144;5.430;2022-12-20T03:41:03;7.70;;;4.60;;
44189;SDS011;29856;52.144;5.430;2022-12-20T03:43:28;6.05;;;3.35;;
44189;SDS011;29856;52.144;5.430;2022-12-20T03:45:54;5.78;;;3.80;;
44189;SDS011;29856;52.144;5.430;2022-12-20T03:48:19;5.15;;;3.47;;
44189;SDS011;29856;52.144;5.430;2022-12-20T03:50:44;5.05;;;3.60;;
44189;SDS011;29856;52.144;5.430;2022-12-20T03:53:10;5.45;;;3.33;;
44189;SDS011;29856;52.144;5.430;2022-12-20T03:55:35;5.65;;;3.75;;
44189;SDS011;29856;52.144;5.430;2022-12-20T03:58:01;4.80;;;3.25;;
44189;SDS011;29856;52.144;5.430;2022-12-20T04:00:26;6.57;;;3.53;;
44189;SDS011;29856;52.144;5.430;2022-12-20T04:02:52;5.40;;;3.40;;
44189;SDS011;29856;52.144;5.430;2022-12-20T04:05:17;4.93;;;3.35;;
44189;SDS011;29856;52.144;5.430;2022-12-20T04:07:43;7.53;;;3.38;;
44189;SDS011;29856;52.144;5.430;2022-12-20T04:10:08;5.30;;;3.53;;
44189;SDS011;29856;52.144;5.430;2022-12-20T04:12:35;9.43;;;3.40;;
44189;SDS011;29856;52.144;5.430;2022-12-20T04:15:00;5.68;;;3.10;;
44189;SDS011;29856;52.144;5.430;2022-12-20T04:17:26;5.43;;;3.35;;
44189;SDS011;29856;52.144;5.430;2022-12-20T04:19:51;9.90;;;3.20;;
44189;SDS011;29856;52.144;5.430;2022-12-20T04:22:17;6.85;;;3.03;;
44189;SDS011;29856;52.144;5.430;2022-12-20T04:24:42;6.07;;;3.33;;
44189;SDS011;29856;52.144;5.430;2022-12-20T04:27:07;5.13;;;2.80;;
44189;SDS011;29856;52.144;5.430;2022-12-20T04:29:33;5.65;;;3.30;;
44189;SDS011;29856;52.144;5.430;2022-12-20T04:31:58;7.43;;;3.08;;
44189;SDS011;29856;52.144;5.430;2022-12-20T04:34:24;4.78;;;3.05;;
44189;SDS011;29856;52.144;5.430;2022-12-20T04:36:49;7.07;;;3.13;;
44189;SDS011;29856;52.144;5.430;2022-12-20T04:39:15;8.07;;;3.33;;
44189;SDS011;29856;52.144;5.430;2022-12-20T04:41:40;4.38;;;3.35;;
44189;SDS011;29856;52.144;5.430;2022-12-20T04:44:06;4.97;;;2.78;;
44189;SDS011;29856;52.144;5.430;2022-12-20T04:46:31;4.03;;;2.80;;
44189;SDS011;29856;52.144;5.430;2022-12-20T04:48:57;3.35;;;2.70;;
44189;SDS011;29856;52.144;5.430;2022-12-20T04:51:22;6.22;;;2.80;;
44189;SDS011;29856;52.144;5.430;2022-12-20T04:53:48;5.93;;;3.13;;
44189;SDS011;29856;52.144;5.430;2022-12-20T04:58:39;5.63;;;2.97;;
44189;SDS011;29856;52.144;5.430;2022-12-20T05:01:04;5.22;;;2.85;;
44189;SDS011;29856;52.144;5.430;2022-12-20T05:03:30;6.18;;;3.10;;
44189;SDS011;29856;52.144;5.430;2022-12-20T05:05:55;4.72;;;3.10;;
44189;SDS011;29856;52.144;5.430;2022-12-20T05:08:21;4.00;;;2.80;;
44189;SDS011;29856;52.144;5.430;2022-12-20T05:10:46;5.18;;;2.97;;
44189;SDS011;29856;52.144;5.430;2022-12-20T05:13:12;7.03;;;3.55;;
44189;SDS011;29856;52.144;5.430;2022-12-20T05:15:37;5.25;;;3.30;;
44189;SDS011;29856;52.144;5.430;2022-12-20T05:18:03;7.80;;;3.65;;
44189;SDS011;29856;52.144;5.430;2022-12-20T05:20:29;8.35;;;3.30;;
44189;SDS011;29856;52.144;5.430;2022-12-20T05:22:55;6.20;;;3.08;;
44189;SDS011;29856;52.144;5.430;2022-12-20T05:25:21;8.50;;;3.15;;
44189;SDS011;29856;52.144;5.430;2022-12-20T05:27:46;6.63;;;3.88;;
44189;SDS011;29856;52.144;5.430;2022-12-20T05:30:12;4.57;;;3.38;;
44189;SDS011;29856;52.144;5.430;2022-12-20T05:32:37;4.93;;;3.28;;
44189;SDS011;29856;52.144;5.430;2022-12-20T05:35:03;6.10;;;3.15;;
44189;SDS011;29856;52.144;5.430;2022-12-20T05:37:29;6.28;;;3.42;;
44189;SDS011;29856;52.144;5.430;2022-12-20T05:39:54;8.10;;;3.53;;
44189;SDS011;29856;52.144;5.430;2022-12-20T05:42:19;5.70;;;3.28;;
44189;SDS011;29856;52.144;5.430;2022-12-20T05:44:45;4.95;;;3.30;;
44189;SDS011;29856;52.144;5.430;2022-12-20T05:47:10;6.72;;;3.40;;
44189;SDS011;29856;52.144;5.430;2022-12-20T05:49:36;5.97;;;3.22;;
44189;SDS011;29856;52.144;5.430;2022-12-20T05:52:01;4.97;;;3.28;;
44189;SDS011;29856;52.144;5.430;2022-12-20T05:54:27;7.10;;;3.28;;
44189;SDS011;29856;52.144;5.430;2022-12-20T05:56:52;6.07;;;3.50;;
44189;SDS011;29856;52.144;5.430;2022-12-20T05:59:18;7.32;;;3.50;;
44189;SDS011;29856;52.144;5.430;2022-12-20T06:01:43;6.88;;;3.47;;
44189;SDS011;29856;52.144;5.430;2022-12-20T06:04:09;4.75;;;3.42;;
44189;SDS011;29856;52.144;5.430;2022-12-20T06:06:34;5.20;;;3.15;;
44189;SDS011;29856;52.144;5.430;2022-12-20T06:09:00;5.25;;;3.17;;
44189;SDS011;29856;52.144;5.430;2022-12-20T06:11:25;6.60;;;3.42;;
44189;SDS011;29856;52.144;5.430;2022-12-20T06:13:50;6.40;;;3.15;;
44189;SDS011;29856;52.144;5.430;2022-12-20T06:16:16;6.07;;;3.10;;
44189;SDS011;29856;52.144;5.430;2022-12-20T06:18:42;4.70;;;3.40;;
44189;SDS011;29856;52.144;5.430;2022-12-20T06:21:07;10.50;;;3.70;;
44189;SDS011;29856;52.144;5.430;2022-12-20T06:23:33;9.23;;;3.58;;
44189;SDS011;29856;52.144;5.430;2022-12-20T06:25:58;5.60;;;3.00;;
44189;SDS011;29856;52.144;5.430;2022-12-20T06:28:23;5.90;;;3.08;;
44189;SDS011;29856;52.144;5.430;2022-12-20T06:30:52;7.25;;;3.63;;
44189;SDS011;29856;52.144;5.430;2022-12-20T06:33:18;6.25;;;3.60;;
44189;SDS011;29856;52.144;5.430;2022-12-20T06:35:44;2.90;;;2.50;;
44189;SDS011;29856;52.144;5.430;2022-12-20T06:38:10;8.95;;;3.22;;
44189;SDS011;29856;52.144;5.430;2022-12-20T06:40:36;5.28;;;2.80;;
44189;SDS011;29856;52.144;5.430;2022-12-20T06:43:01;4.88;;;3.38;;
44189;SDS011;29856;52.144;5.430;2022-12-20T06:45:27;5.70;;;2.90;;
44189;SDS011;29856;52.144;5.430;2022-12-20T06:47:52;6.63;;;2.83;;
44189;SDS011;29856;52.144;5.430;2022-12-20T06:50:18;3.67;;;2.60;;
44189;SDS011;29856;52.144;5.430;2022-12-20T06:52:43;7.72;;;3.15;;
44189;SDS011;29856;52.144;5.430;2022-12-20T06:55:09;4.00;;;2.80;;
44189;SDS011;29856;52.144;5.430;2022-12-20T06:57:34;5.65;;;2.75;;
44189;SDS011;29856;52.144;5.430;2022-12-20T07:00:00;4.68;;;2.80;;
44189;SDS011;29856;52.144;5.430;2022-12-20T07:02:26;4.43;;;2.72;;
44189;SDS011;29856;52.144;5.430;2022-12-20T07:04:51;4.25;;;2.22;;
44189;SDS011;29856;52.144;5.430;2022-12-20T07:07:17;3.03;;;2.53;;
44189;SDS011;29856;52.144;5.430;2022-12-20T07:09:42;3.78;;;2.55;;
44189;SDS011;29856;52.144;5.430;2022-12-20T07:12:08;4.82;;;2.58;;
44189;SDS011;29856;52.144;5.430;2022-12-20T07:14:34;4.57;;;2.67;;
44189;SDS011;29856;52.144;5.430;2022-12-20T07:16:59;6.70;;;2.60;;
44189;SDS011;29856;52.144;5.430;2022-12-20T07:19:25;7.55;;;2.47;;
44189;SDS011;29856;52.144;5.430;2022-12-20T07:21:50;6.60;;;2.25;;
44189;SDS011;29856;52.144;5.430;2022-12-20T07:24:16;4.28;;;2.22;;
44189;SDS011;29856;52.144;5.430;2022-12-20T07:26:44;6.38;;;2.30;;
44189;SDS011;29856;52.144;5.430;2022-12-20T07:29:11;5.20;;;2.15;;
44189;SDS011;29856;52.144;5.430;2022-12-20T07:31:37;7.97;;;2.60;;
44189;SDS011;29856;52.144;5.430;2022-12-20T07:34:02;4.82;;;2.53;;
44189;SDS011;29856;52.144;5.430;2022-12-20T07:36:28;3.28;;;2.10;;
44189;SDS011;29856;52.144;5.430;2022-12-20T07:38:53;5.43;;;2.10;;
44189;SDS011;29856;52.144;5.430;2022-12-20T07:41:18;5.38;;;2.30;;
44189;SDS011;29856;52.144;5.430;2022-12-20T07:43:44;11.95;;;2.40;;
44189;SDS011;29856;52.144;5.430;2022-12-20T07:46:11;4.07;;;2.03;;
44189;SDS011;29856;52.144;5.430;2022-12-20T07:48:38;3.67;;;2.10;;
44189;SDS011;29856;52.144;5.430;2022-12-20T07:51:08;4.45;;;2.08;;
44189;SDS011;29856;52.144;5.430;2022-12-20T07:53:39;5.32;;;2.05;;
44189;SDS011;29856;52.144;5.430;2022-12-20T07:56:08;4.10;;;2.10;;
44189;SDS011;29856;52.144;5.430;2022-12-20T07:58:35;5.90;;;1.95;;
44189;SDS011;29856;52.144;5.430;2022-12-20T08:01:03;3.70;;;2.35;;
44189;SDS011;29856;52.144;5.430;2022-12-20T08:03:35;4.28;;;2.17;;
44189;SDS011;29856;52.144;5.430;2022-12-20T08:06:05;4.60;;;2.20;;
44189;SDS011;29856;52.144;5.430;2022-12-20T08:08:32;8.68;;;3.45;;
44189;SDS011;29856;52.144;5.430;2022-12-20T08:11:02;4.40;;;1.90;;
44189;SDS011;29856;52.144;5.430;2022-12-20T08:13:31;4.60;;;2.47;;
44189;SDS011;29856;52.144;5.430;2022-12-20T08:15:57;6.45;;;1.90;;
44189;SDS011;29856;52.144;5.430;2022-12-20T08:18:23;5.18;;;2.22;;
44189;SDS011;29856;52.144;5.430;2022-12-20T08:20:49;12.90;;;2.40;;
44189;SDS011;29856;52.144;5.430;2022-12-20T08:23:14;5.07;;;2.65;;
44189;SDS011;29856;52.144;5.430;2022-12-20T08:25:40;7.30;;;2.45;;
44189;SDS011;29856;52.144;5.430;2022-12-20T08:28:05;3.47;;;1.90;;
44189;SDS011;29856;52.144;5.430;2022-12-20T08:30:31;4.47;;;2.30;;
44189;SDS011;29856;52.144;5.430;2022-12-20T08:32:56;3.38;;;2.15;;
44189;SDS011;29856;52.144;5.430;2022-12-20T08:35:22;3.22;;;2.20;;
44189;SDS011;29856;52.144;5.430;2022-12-20T08:37:50;3.30;;;1.88;;
44189;SDS011;29856;52.144;5.430;2022-12-20T08:40:15;3.45;;;1.75;;
44189;SDS011;29856;52.144;5.430;2022-12-20T08:42:41;4.13;;;2.20;;
44189;SDS011;29856;52.144;5.430;2022-12-20T08:45:06;5.60;;;1.92;;
44189;SDS011;29856;52.144;5.430;2022-12-20T08:47:32;3.63;;;1.75;;
44189;SDS011;29856;52.144;5.430;2022-12-20T08:49:58;3.75;;;2.00;;
44189;SDS011;29856;52.144;5.430;2022-12-20T08:52:23;2.88;;;1.70;;
44189;SDS011;29856;52.144;5.430;2022-12-20T08:54:49;4.00;;;2.30;;
44189;SDS011;29856;52.144;5.430;2022-12-20T08:57:14;3.90;;;1.95;;
44189;SDS011;29856;52.144;5.430;2022-12-20T08:59:40;4.97;;;2.05;;
44189;SDS011;29856;52.144;5.430;2022-12-20T09:02:05;5.15;;;1.77;;
44189;SDS011;29856;52.144;5.430;2022-12-20T09:04:31;6.82;;;2.20;;
44189;SDS011;29856;52.144;5.430;2022-12-20T09:06:56;9.75;;;2.30;;
44189;SDS011;29856;52.144;5.430;2022-12-20T09:09:22;4.97;;;2.03;;
44189;SDS011;29856;52.144;5.430;2022-12-20T09:11:47;5.43;;;2.50;;
44189;SDS011;29856;52.144;5.430;2022-12-20T09:14:13;5.47;;;2.30;;
44189;SDS011;29856;52.144;5.430;2022-12-20T09:16:38;8.27;;;2.28;;
44189;SDS011;29856;52.144;5.430;2022-12-20T09:19:04;5.43;;;2.63;;
44189;SDS011;29856;52.144;5.430;2022-12-20T09:21:30;2.47;;;2.00;;
44189;SDS011;29856;52.144;5.430;2022-12-20T09:23:55;10.35;;;2.35;;
44189;SDS011;29856;52.144;5.430;2022-12-20T09:26:22;7.05;;;3.03;;
44189;SDS011;29856;52.144;5.430;2022-12-20T09:28:48;6.00;;;2.72;;
44189;SDS011;29856;52.144;5.430;2022-12-20T09:31:18;3.80;;;1.95;;
44189;SDS011;29856;52.144;5.430;2022-12-20T09:33:45;4.90;;;2.38;;
44189;SDS011;29856;52.144;5.430;2022-12-20T09:36:15;5.70;;;2.22;;
44189;SDS011;29856;52.144;5.430;2022-12-20T09:38:45;5.10;;;2.45;;
44189;SDS011;29856;52.144;5.430;2022-12-20T09:41:44;6.82;;;2.70;;
44189;SDS011;29856;52.144;5.430;2022-12-20T09:44:09;6.97;;;2.90;;
44189;SDS011;29856;52.144;5.430;2022-12-20T09:46:43;6.40;;;2.78;;
44189;SDS011;29856;52.144;5.430;2022-12-20T09:49:16;5.97;;;2.70;;
44189;SDS011;29856;52.144;5.430;2022-12-20T09:51:54;6.93;;;2.75;;
44189;SDS011;29856;52.144;5.430;2022-12-20T09:54:41;5.25;;;2.35;;
44189;SDS011;29856;52.144;5.430;2022-12-20T09:59:44;7.55;;;2.85;;
44189;SDS011;29856;52.144;5.430;2022-12-20T10:02:13;7.10;;;2.50;;
44189;SDS011;29856;52.144;5.430;2022-12-20T10:04:44;6.10;;;2.50;;
44189;SDS011;29856;52.144;5.430;2022-12-20T10:12:52;8.32;;;2.85;;
44189;SDS011;29856;52.144;5.430;2022-12-20T10:15:24;5.35;;;2.67;;
44189;SDS011;29856;52.144;5.430;2022-12-20T10:23:28;10.30;;;2.92;;
44189;SDS011;29856;52.144;5.430;2022-12-20T10:26:01;8.02;;;2.60;;
44189;SDS011;29856;52.144;5.430;2022-12-20T10:28:33;8.95;;;3.13;;
44189;SDS011;29856;52.144;5.430;2022-12-20T10:31:00;7.43;;;3.08;;
44189;SDS011;29856;52.144;5.430;2022-12-20T10:33:29;4.80;;;2.83;;
44189;SDS011;29856;52.144;5.430;2022-12-20T10:35:55;5.93;;;2.75;;
44189;SDS011;29856;52.144;5.430;2022-12-20T10:38:50;5.93;;;2.97;;
44189;SDS011;29856;52.144;5.430;2022-12-20T10:41:51;6.72;;;3.10;;
44189;SDS011;29856;52.144;5.430;2022-12-20T10:44:17;7.68;;;3.30;;
44189;SDS011;29856;52.144;5.430;2022-12-20T10:46:55;5.28;;;2.72;;
44189;SDS011;29856;52.144;5.430;2022-12-20T10:49:32;6.85;;;3.38;;
44189;SDS011;29856;52.144;5.430;2022-12-20T10:54:28;10.30;;;3.78;;
44189;SDS011;29856;52.144;5.430;2022-12-20T10:59:49;6.45;;;3.38;;
44189;SDS011;29856;52.144;5.430;2022-12-20T11:02:23;8.20;;;3.35;;
44189;SDS011;29856;52.144;5.430;2022-12-20T11:07:37;7.20;;;3.38;;
44189;SDS011;29856;52.144;5.430;2022-12-20T11:10:24;6.72;;;3.25;;
44189;SDS011;29856;52.144;5.430;2022-12-20T11:15:30;5.20;;;3.25;;
44189;SDS011;29856;52.144;5.430;2022-12-20T11:18:04;5.93;;;2.97;;
44189;SDS011;29856;52.144;5.430;2022-12-20T11:28:46;7.95;;;3.60;;
44189;SDS011;29856;52.144;5.430;2022-12-20T11:45:14;5.65;;;3.50;;
44189;SDS011;29856;52.144;5.430;2022-12-20T11:51:12;6.90;;;3.45;;
44189;SDS011;29856;52.144;5.430;2022-12-20T11:56:04;6.03;;;3.45;;
44189;SDS011;29856;52.144;5.430;2022-12-20T12:01:17;7.20;;;3.75;;
44189;SDS011;29856;52.144;5.430;2022-12-20T12:03:58;7.72;;;3.88;;
44189;SDS011;29856;52.144;5.430;2022-12-20T12:07:09;7.47;;;3.67;;
44189;SDS011;29856;52.144;5.430;2022-12-20T12:14:51;8.38;;;4.00;;
44189;SDS011;29856;52.144;5.430;2022-12-20T12:17:43;8.52;;;4.18;;
44189;SDS011;29856;52.144;5.430;2022-12-20T12:22:50;4.68;;;3.42;;
44189;SDS011;29856;52.144;5.430;2022-12-20T12:25:19;7.07;;;3.97;;
44189;SDS011;29856;52.144;5.430;2022-12-20T12:27:45;5.13;;;3.60;;
44189;SDS011;29856;52.144;5.430;2022-12-20T12:30:11;5.13;;;3.65;;
44189;SDS011;29856;52.144;5.430;2022-12-20T12:37:53;4.60;;;3.60;;
44189;SDS011;29856;52.144;5.430;2022-12-20T12:46:10;5.03;;;3.47;;
44189;SDS011;29856;52.144;5.430;2022-12-20T12:48:42;5.65;;;3.78;;
44189;SDS011;29856;52.144;5.430;2022-12-20T12:51:13;4.80;;;3.50;;
44189;SDS011;29856;52.144;5.430;2022-12-20T12:53:51;3.20;;;2.90;;
44189;SDS011;29856;52.144;5.430;2022-12-20T13:09:56;6.53;;;3.70;;
44189;SDS011;29856;52.144;5.430;2022-12-20T13:15:47;5.63;;;4.28;;
44189;SDS011;29856;52.144;5.430;2022-12-20T13:20:38;6.35;;;4.47;;
44189;SDS011;29856;52.144;5.430;2022-12-20T13:25:29;5.93;;;4.45;;
44189;SDS011;29856;52.144;5.430;2022-12-20T13:28:38;6.88;;;4.80;;
44189;SDS011;29856;52.144;5.430;2022-12-20T13:39:02;5.85;;;4.10;;
44189;SDS011;29856;52.144;5.430;2022-12-20T13:41:47;6.53;;;3.85;;
44189;SDS011;29856;52.144;5.430;2022-12-20T13:44:20;4.78;;;4.32;;
44189;SDS011;29856;52.144;5.430;2022-12-20T13:47:11;6.35;;;4.05;;
44189;SDS011;29856;52.144;5.430;2022-12-20T13:49:49;5.40;;;3.85;;
44189;SDS011;29856;52.144;5.430;2022-12-20T13:54:58;3.50;;;3.20;;
44189;SDS011;29856;52.144;5.430;2022-12-20T13:57:31;5.55;;;3.80;;
44189;SDS011;29856;52.144;5.430;2022-12-20T14:00:05;5.15;;;3.90;;
44189;SDS011;29856;52.144;5.430;2022-12-20T14:02:39;3.95;;;3.63;;
44189;SDS011;29856;52.144;5.430;2022-12-20T14:05:11;4.35;;;2.90;;
44189;SDS011;29856;52.144;5.430;2022-12-20T14:07:37;4.78;;;3.65;;
44189;SDS011;29856;52.144;5.430;2022-12-20T14:10:15;4.10;;;3.60;;
44189;SDS011;29856;52.144;5.430;2022-12-20T14:12:45;3.47;;;3.17;;
44189;SDS011;29856;52.144;5.430;2022-12-20T14:15:22;6.13;;;3.72;;
44189;SDS011;29856;52.144;5.430;2022-12-20T14:17:52;3.75;;;3.40;;
44189;SDS011;29856;52.144;5.430;2022-12-20T14:20:26;3.92;;;3.55;;
44189;SDS011;29856;52.144;5.430;2022-12-20T14:23:04;4.15;;;3.70;;
44189;SDS011;29856;52.144;5.430;2022-12-20T14:25:36;5.13;;;3.75;;
44189;SDS011;29856;52.144;5.430;2022-12-20T14:28:03;3.88;;;3.42;;
44189;SDS011;29856;52.144;5.430;2022-12-20T14:30:34;6.07;;;4.35;;
44189;SDS011;29856;52.144;5.430;2022-12-20T14:33:14;5.50;;;3.53;;
44189;SDS011;29856;52.144;5.430;2022-12-20T14:35:51;3.80;;;3.40;;
44189;SDS011;29856;52.144;5.430;2022-12-20T14:38:38;4.40;;;4.00;;
44189;SDS011;29856;52.144;5.430;2022-12-20T14:41:04;4.18;;;3.88;;
44189;SDS011;29856;52.144;5.430;2022-12-20T14:43:53;4.38;;;3.95;;
44189;SDS011;29856;52.144;5.430;2022-12-20T14:46:21;5.78;;;4.30;;
44189;SDS011;29856;52.144;5.430;2022-12-20T14:48:47;5.65;;;4.70;;
44189;SDS011;29856;52.144;5.430;2022-12-20T14:51:28;5.82;;;4.03;;
44189;SDS011;29856;52.144;5.430;2022-12-20T14:53:54;4.03;;;3.58;;
44189;SDS011;29856;52.144;5.430;2022-12-20T14:56:22;4.57;;;4.18;;
44189;SDS011;29856;52.144;5.430;2022-12-20T14:58:47;4.53;;;4.13;;
44189;SDS011;29856;52.144;5.430;2022-12-20T15:01:38;6.25;;;4.50;;
44189;SDS011;29856;52.144;5.430;2022-12-20T15:04:18;4.90;;;4.30;;
44189;SDS011;29856;52.144;5.430;2022-12-20T15:06:44;4.18;;;3.88;;
44189;SDS011;29856;52.144;5.430;2022-12-20T15:09:10;4.72;;;4.28;;
44189;SDS011;29856;52.144;5.430;2022-12-20T15:11:36;5.93;;;4.53;;
44189;SDS011;29856;52.144;5.430;2022-12-20T15:14:09;5.93;;;5.22;;
44189;SDS011;29856;52.144;5.430;2022-12-20T15:17:00;5.15;;;4.45;;
44189;SDS011;29856;52.144;5.430;2022-12-20T15:19:34;4.97;;;4.47;;
44189;SDS011;29856;52.144;5.430;2022-12-20T15:21:59;5.82;;;5.07;;
44189;SDS011;29856;52.144;5.430;2022-12-20T15:24:26;6.22;;;5.18;;
44189;SDS011;29856;52.144;5.430;2022-12-20T15:26:52;5.82;;;4.90;;
44189;SDS011;29856;52.144;5.430;2022-12-20T15:29:23;6.78;;;5.18;;
44189;SDS011;29856;52.144;5.430;2022-12-20T15:31:51;6.53;;;5.50;;
44189;SDS011;29856;52.144;5.430;2022-12-20T15:34:26;6.57;;;5.95;;
44189;SDS011;29856;52.144;5.430;2022-12-20T15:37:02;6.47;;;5.75;;
44189;SDS011;29856;52.144;5.430;2022-12-20T15:39:28;6.22;;;5.63;;
44189;SDS011;29856;52.144;5.430;2022-12-20T15:41:54;7.97;;;6.20;;
44189;SDS011;29856;52.144;5.430;2022-12-20T15:44:23;7.32;;;6.28;;
44189;SDS011;29856;52.144;5.430;2022-12-20T15:46:51;6.75;;;6.13;;
44189;SDS011;29856;52.144;5.430;2022-12-20T15:49:21;7.75;;;7.03;;
44189;SDS011;29856;52.144;5.430;2022-12-20T15:51:48;10.93;;;6.90;;
44189;SDS011;29856;52.144;5.430;2022-12-20T15:54:25;11.65;;;6.95;;
44189;SDS011;29856;52.144;5.430;2022-12-20T15:56:57;7.68;;;6.97;;
44189;SDS011;29856;52.144;5.430;2022-12-20T15:59:25;7.30;;;6.60;;
44189;SDS011;29856;52.144;5.430;2022-12-20T16:01:50;6.90;;;5.95;;
44189;SDS011;29856;52.144;5.430;2022-12-20T16:04:17;7.70;;;6.55;;
44189;SDS011;29856;52.144;5.430;2022-12-20T16:06:44;8.23;;;6.65;;
44189;SDS011;29856;52.144;5.430;2022-12-20T16:09:11;6.95;;;6.32;;
44189;SDS011;29856;52.144;5.430;2022-12-20T16:11:37;7.70;;;6.95;;
44189;SDS011;29856;52.144;5.430;2022-12-20T16:14:04;7.45;;;6.75;;
44189;SDS011;29856;52.144;5.430;2022-12-20T16:16:33;6.85;;;5.80;;
44189;SDS011;29856;52.144;5.430;2022-12-20T16:19:00;8.18;;;7.00;;
44189;SDS011;29856;52.144;5.430;2022-12-20T16:21:29;6.53;;;5.82;;
44189;SDS011;29856;52.144;5.430;2022-12-20T16:23:57;6.60;;;6.00;;
44189;SDS011;29856;52.144;5.430;2022-12-20T16:26:22;7.07;;;6.47;;
44189;SDS011;29856;52.144;5.430;2022-12-20T16:28:50;7.10;;;6.40;;
44189;SDS011;29856;52.144;5.430;2022-12-20T16:31:30;7.45;;;6.72;;
44189;SDS011;29856;52.144;5.430;2022-12-20T16:34:06;8.45;;;7.10;;
44189;SDS011;29856;52.144;5.430;2022-12-20T16:36:37;7.90;;;7.20;;
44189;SDS011;29856;52.144;5.430;2022-12-20T16:39:02;7.32;;;6.63;;
44189;SDS011;29856;52.144;5.430;2022-12-20T16:41:29;6.55;;;5.95;;
44189;SDS011;29856;52.144;5.430;2022-12-20T16:43:56;8.00;;;7.25;;
44189;SDS011;29856;52.144;5.430;2022-12-20T16:46:26;8.85;;;7.75;;
44189;SDS011;29856;52.144;5.430;2022-12-20T16:48:53;9.20;;;8.25;;
44189;SDS011;29856;52.144;5.430;2022-12-20T16:51:21;8.63;;;6.97;;
44189;SDS011;29856;52.144;5.430;2022-12-20T16:53:47;10.13;;;7.20;;
44189;SDS011;29856;52.144;5.430;2022-12-20T16:56:13;9.07;;;8.38;;
44189;SDS011;29856;52.144;5.430;2022-12-20T16:58:39;11.07;;;9.05;;
44189;SDS011;29856;52.144;5.430;2022-12-20T17:01:04;8.63;;;7.85;;
44189;SDS011;29856;52.144;5.430;2022-12-20T17:03:30;9.90;;;8.93;;